Main page
METAR-TAF:

METAR-TAF

Airports :

Comandante Gustavo Kraemer Airport

Bagé, Rio Grande do Sul, Brazil

latitude: 31-21S, longitude: 054-07W, elevation: 180 m

Current weather observation

The report was made 11 hours and 38 minutes ago, at 20:00 UTC
Wind 4 kt from the East
Temperature 25°C
Humidity 47%
Pressure 1012 hPa
Visibility 10 km or more
Few clouds at a height of 4000 ft

METAR: SBBG 182000Z 08004KT 9999 FEW040 25/13 Q1012

Time: 04:38 (07:38 UTC)

Forecast

The report was made 6 hours and 8 minutes ago, at 01:30 UTC
Forecast valid from 19 at 06 UTC to 20 at 06 UTC
Wind 5 kt from the Northwest
Visibility 10 km or more
Scattered clouds at a height of 4000 ft

TAF: SBBG 190130Z 1906/2006 32005KT 9999 SCT040 TN16/1908Z TX27/1918Z RMK PEB

Weather observations and forecasts of more than 4000 airports (METAR and TAF reports).

The available stations are represented by yellow and red dots on the map.

Hover mouse over dot to see the name of the station.

Then click to see weather observations and forecasts.

To change the map : click on the green buttons with a black cross to zoom in, on the green button with a dash to zoom out, or on the green arrows for adjacent maps.


METAR-TAF: